createdAt,value
2024-02-08T00:01:53.646Z,49.80
2024-02-08T00:04:20.191Z,49.80
2024-02-08T00:06:46.784Z,49.80
2024-02-08T00:09:13.225Z,49.80
2024-02-08T00:11:39.743Z,49.80
2024-02-08T00:14:06.381Z,49.80
2024-02-08T00:16:32.892Z,49.70
2024-02-08T00:18:59.479Z,49.80
2024-02-08T00:21:25.994Z,49.90
2024-02-08T00:23:52.471Z,49.80
2024-02-08T00:26:19.178Z,49.80
2024-02-08T00:28:45.691Z,49.80
2024-02-08T00:31:12.162Z,49.90
2024-02-08T00:33:38.638Z,49.80
2024-02-08T00:36:05.102Z,49.80
2024-02-08T00:38:31.646Z,49.90
2024-02-08T00:40:58.273Z,49.80
2024-02-08T00:43:24.761Z,49.80
2024-02-08T00:45:51.273Z,49.80
2024-02-08T00:48:17.792Z,49.80
2024-02-08T00:50:44.326Z,49.90
2024-02-08T00:53:10.844Z,49.80
2024-02-08T00:55:37.380Z,49.80
2024-02-08T00:58:03.926Z,49.80
2024-02-08T01:00:30.394Z,49.90
2024-02-08T01:02:56.938Z,49.90
2024-02-08T01:05:23.520Z,49.90
2024-02-08T01:07:50.130Z,50.00
2024-02-08T01:10:16.606Z,49.90
2024-02-08T01:12:43.048Z,49.90
2024-02-08T01:15:09.530Z,49.90
2024-02-08T01:17:36.110Z,49.90
2024-02-08T01:20:03.276Z,49.90
2024-02-08T01:22:30.297Z,49.90
2024-02-08T01:24:56.941Z,49.90
2024-02-08T01:27:23.385Z,49.80
2024-02-08T01:29:49.822Z,49.80
2024-02-08T01:32:16.325Z,49.80
2024-02-08T01:34:42.816Z,49.80
2024-02-08T01:37:09.342Z,49.80
2024-02-08T01:39:35.819Z,49.80
2024-02-08T01:42:02.269Z,49.80
2024-02-08T01:44:28.734Z,49.80
2024-02-08T01:46:55.267Z,49.80
2024-02-08T01:49:21.831Z,49.80
2024-02-08T01:51:48.303Z,49.80
2024-02-08T01:54:14.798Z,49.80
2024-02-08T01:56:41.252Z,49.80
2024-02-08T01:59:07.769Z,49.80
2024-02-08T02:01:34.297Z,49.80
2024-02-08T02:04:00.865Z,49.80
2024-02-08T02:06:27.397Z,49.90
2024-02-08T02:08:53.880Z,49.80
2024-02-08T02:11:20.488Z,49.80
2024-02-08T02:13:47.078Z,49.80
2024-02-08T02:16:13.592Z,49.80
2024-02-08T02:18:40.087Z,49.80
2024-02-08T02:21:06.538Z,49.80
2024-02-08T02:23:33.000Z,49.70
2024-02-08T02:25:59.478Z,49.80
2024-02-08T02:28:25.942Z,49.80
2024-02-08T02:30:52.407Z,49.70
2024-02-08T02:33:18.909Z,49.70
2024-02-08T02:35:45.398Z,49.70
2024-02-08T02:38:11.901Z,49.80
2024-02-08T02:40:38.449Z,49.70
2024-02-08T02:43:04.918Z,49.70
2024-02-08T02:45:31.369Z,49.70
2024-02-08T02:47:58.027Z,49.70
2024-02-08T02:50:24.650Z,49.70
2024-02-08T02:52:51.255Z,49.70
2024-02-08T02:55:17.770Z,49.60
2024-02-08T02:57:44.263Z,49.70
2024-02-08T03:00:10.731Z,49.70
2024-02-08T03:02:37.168Z,49.70
2024-02-08T03:05:03.722Z,49.70
2024-02-08T03:07:30.372Z,49.70
2024-02-08T03:09:57.018Z,49.70
2024-02-08T03:12:23.513Z,49.70
2024-02-08T03:14:49.965Z,49.70
2024-02-08T03:17:16.439Z,49.70
2024-02-08T03:19:42.912Z,49.80
2024-02-08T03:22:09.904Z,49.70
2024-02-08T03:24:36.579Z,49.70
2024-02-08T03:27:03.012Z,49.70
2024-02-08T03:29:29.449Z,49.60
2024-02-08T03:31:55.948Z,49.60
2024-02-08T03:34:22.429Z,49.60
2024-02-08T03:36:48.933Z,49.60
2024-02-08T03:39:15.395Z,49.60
2024-02-08T03:41:41.837Z,49.50
2024-02-08T03:44:08.382Z,49.60
2024-02-08T03:46:34.886Z,49.60
2024-02-08T03:49:01.415Z,49.50
2024-02-08T03:51:27.899Z,49.50
2024-02-08T03:53:54.348Z,49.50
2024-02-08T03:56:20.822Z,49.50
2024-02-08T03:58:47.410Z,49.40
2024-02-08T04:01:13.956Z,49.40
2024-02-08T04:03:40.478Z,49.40
2024-02-08T04:06:07.037Z,49.40
2024-02-08T04:08:33.519Z,49.40
2024-02-08T04:11:00.042Z,49.40
2024-02-08T04:13:26.600Z,49.40
2024-02-08T04:15:53.077Z,49.40
2024-02-08T04:18:19.676Z,49.30
2024-02-08T04:20:46.171Z,49.30
2024-02-08T04:23:12.773Z,49.20
2024-02-08T04:25:39.367Z,49.30
2024-02-08T04:28:05.823Z,49.30
2024-02-08T04:30:32.291Z,49.30
2024-02-08T04:32:58.791Z,49.30
2024-02-08T04:35:25.296Z,49.30
2024-02-08T04:37:51.797Z,49.30
2024-02-08T04:40:18.314Z,49.40
2024-02-08T04:42:44.797Z,49.40
2024-02-08T04:45:11.252Z,49.40
2024-02-08T04:47:37.748Z,49.50
2024-02-08T04:50:04.320Z,49.50
2024-02-08T04:52:30.889Z,49.40
2024-02-08T04:54:57.347Z,49.40
2024-02-08T04:57:23.831Z,49.50
2024-02-08T04:59:53.254Z,49.50
2024-02-08T05:02:21.549Z,49.50
2024-02-08T05:04:48.092Z,49.60
2024-02-08T05:07:14.696Z,49.60
2024-02-08T05:09:41.684Z,49.60
2024-02-08T05:12:08.187Z,49.60
2024-02-08T05:14:34.690Z,49.60
2024-02-08T05:17:01.165Z,49.60
2024-02-08T05:19:28.513Z,49.60
2024-02-08T05:21:55.435Z,49.60
2024-02-08T05:24:21.880Z,49.60
2024-02-08T05:26:48.355Z,49.60
2024-02-08T05:29:14.824Z,49.60
2024-02-08T05:31:41.308Z,49.60
2024-02-08T05:34:16.349Z,49.50
2024-02-08T05:36:44.464Z,49.50
2024-02-08T05:39:10.962Z,49.50
2024-02-08T05:41:37.392Z,49.60
2024-02-08T05:44:03.870Z,49.60
2024-02-08T05:46:30.371Z,49.60
2024-02-08T05:48:56.871Z,49.60
2024-02-08T05:51:23.419Z,49.60
2024-02-08T05:53:50.001Z,49.60
2024-02-08T05:56:16.493Z,49.60
2024-02-08T05:58:42.953Z,49.70
2024-02-08T06:01:09.471Z,49.60
2024-02-08T06:03:36.120Z,49.60
2024-02-08T06:06:02.652Z,49.60
2024-02-08T06:08:29.157Z,49.60
2024-02-08T06:10:55.706Z,49.60
2024-02-08T06:13:22.174Z,49.60
2024-02-08T06:15:48.810Z,49.60
2024-02-08T06:18:15.478Z,49.60
2024-02-08T06:20:42.719Z,49.50
2024-02-08T06:23:09.456Z,49.60
2024-02-08T06:25:36.020Z,49.50
2024-02-08T06:28:02.590Z,49.50
2024-02-08T06:30:29.037Z,49.50
2024-02-08T06:32:55.577Z,49.50
2024-02-08T06:35:22.099Z,49.50
2024-02-08T06:37:48.530Z,49.40
2024-02-08T06:40:15.149Z,49.40
2024-02-08T06:42:41.687Z,49.50
2024-02-08T06:45:08.201Z,49.50
2024-02-08T06:47:34.733Z,49.40
2024-02-08T06:50:01.274Z,49.40
2024-02-08T06:52:27.766Z,49.40
2024-02-08T06:54:54.308Z,49.40
2024-02-08T06:57:20.815Z,49.40
2024-02-08T06:59:47.288Z,49.40
2024-02-08T07:02:13.791Z,49.40
2024-02-08T07:04:40.395Z,49.40
2024-02-08T07:07:07.027Z,49.40
2024-02-08T07:09:33.552Z,49.40
2024-02-08T07:12:00.036Z,49.40
2024-02-08T07:14:26.471Z,49.40
2024-02-08T07:16:52.951Z,49.40
2024-02-08T07:19:19.503Z,49.40
2024-02-08T07:21:46.046Z,49.50
2024-02-08T07:24:12.502Z,49.40
2024-02-08T07:26:38.973Z,49.40
2024-02-08T07:29:05.436Z,49.40
2024-02-08T07:31:31.999Z,49.40
2024-02-08T07:33:58.583Z,49.40
2024-02-08T07:36:25.105Z,49.30
2024-02-08T07:38:51.712Z,49.30
2024-02-08T07:41:18.145Z,49.30
2024-02-08T07:43:44.637Z,49.40
2024-02-08T07:46:11.197Z,49.40
2024-02-08T07:48:37.790Z,49.40
2024-02-08T07:51:04.379Z,49.40
2024-02-08T07:53:30.833Z,49.40
2024-02-08T07:55:57.284Z,49.40
2024-02-08T07:58:23.758Z,49.40
2024-02-08T08:00:50.305Z,49.50
2024-02-08T08:03:17.864Z,49.40
2024-02-08T08:05:44.835Z,49.40
2024-02-08T08:08:11.328Z,49.40
2024-02-08T08:10:37.808Z,49.40
2024-02-08T08:13:04.281Z,49.40
2024-02-08T08:15:30.757Z,49.40
2024-02-08T08:17:57.289Z,49.50
2024-02-08T08:20:23.845Z,49.40
2024-02-08T08:22:50.296Z,49.40
2024-02-08T08:25:16.844Z,49.40
2024-02-08T08:27:43.438Z,49.40
2024-02-08T08:30:09.933Z,49.40
2024-02-08T08:32:36.448Z,49.40
2024-02-08T08:35:03.265Z,49.40
2024-02-08T08:37:29.964Z,49.40
2024-02-08T08:39:56.556Z,49.40
2024-02-08T08:42:23.065Z,49.40
2024-02-08T08:44:49.559Z,49.40
2024-02-08T08:47:16.014Z,49.40
2024-02-08T08:49:42.559Z,49.40
2024-02-08T08:52:10.239Z,49.40
2024-02-08T08:54:36.724Z,49.40
2024-02-08T08:57:03.216Z,49.40
2024-02-08T08:59:29.701Z,49.30
2024-02-08T09:01:56.349Z,49.30
2024-02-08T09:04:22.997Z,49.20
2024-02-08T09:06:49.748Z,49.20
2024-02-08T09:09:16.388Z,49.20
2024-02-08T09:11:42.844Z,49.30
2024-02-08T09:14:09.328Z,49.10
2024-02-08T09:16:35.972Z,49.20
2024-02-08T09:19:03.602Z,49.30
2024-02-08T09:21:30.645Z,49.30
2024-02-08T09:23:57.093Z,49.30
2024-02-08T09:26:23.592Z,49.30
2024-02-08T09:28:50.060Z,49.30
2024-02-08T09:31:16.508Z,49.30
2024-02-08T09:33:43.016Z,49.30
2024-02-08T09:36:09.480Z,49.40
2024-02-08T09:38:35.919Z,49.30
2024-02-08T09:41:02.482Z,49.30
2024-02-08T09:43:29.018Z,49.30
2024-02-08T09:45:55.591Z,49.40
2024-02-08T09:48:22.260Z,49.30
2024-02-08T09:50:48.806Z,49.20
2024-02-08T09:53:15.278Z,49.10
2024-02-08T09:55:41.737Z,49.00
2024-02-08T09:58:08.261Z,48.90
2024-02-08T10:00:34.785Z,48.90
2024-02-08T10:03:01.290Z,49.10
2024-02-08T10:05:27.786Z,49.10
2024-02-08T10:07:54.283Z,49.10
2024-02-08T10:10:22.959Z,49.10
2024-02-08T10:12:49.433Z,49.10
2024-02-08T10:15:15.876Z,49.10
2024-02-08T10:17:42.968Z,49.00
2024-02-08T10:20:09.796Z,49.10
2024-02-08T10:22:36.345Z,49.10
2024-02-08T10:25:02.942Z,49.00
2024-02-08T10:27:29.426Z,48.80
2024-02-08T10:29:55.916Z,48.90
2024-02-08T10:32:22.562Z,48.90
2024-02-08T10:34:49.055Z,49.00
2024-02-08T10:37:15.637Z,48.90
2024-02-08T10:39:42.088Z,49.00
2024-02-08T10:42:08.536Z,49.10
2024-02-08T10:44:35.156Z,49.10
2024-02-08T10:47:01.634Z,49.10
2024-02-08T10:49:28.279Z,49.10
2024-02-08T10:51:54.800Z,49.10
2024-02-08T10:54:21.430Z,49.10
2024-02-08T10:56:47.875Z,48.90
2024-02-08T10:59:14.348Z,48.90
2024-02-08T11:01:40.926Z,48.90
2024-02-08T11:04:07.494Z,49.00
2024-02-08T11:06:34.032Z,48.90
2024-02-08T11:09:00.506Z,49.20
2024-02-08T11:11:26.982Z,49.20
2024-02-08T11:13:53.421Z,49.20
2024-02-08T11:16:19.945Z,49.30
2024-02-08T11:18:46.561Z,49.10
2024-02-08T11:21:13.141Z,49.20
2024-02-08T11:23:39.638Z,49.00
2024-02-08T11:26:06.099Z,48.80
2024-02-08T11:28:32.591Z,48.80
2024-02-08T11:30:59.171Z,48.70
2024-02-08T11:33:25.684Z,48.60
2024-02-08T11:35:52.142Z,48.60
2024-02-08T11:38:19.039Z,48.40
2024-02-08T11:40:45.626Z,48.40
2024-02-08T11:43:12.110Z,48.30
2024-02-08T11:45:40.393Z,48.10
2024-02-08T11:48:08.132Z,48.00
2024-02-08T11:50:34.676Z,47.80
2024-02-08T11:53:01.261Z,47.90
2024-02-08T11:55:27.756Z,47.70
2024-02-08T11:57:54.318Z,47.90
2024-02-08T12:00:20.820Z,47.90
2024-02-08T12:02:47.297Z,47.90
2024-02-08T12:05:13.960Z,47.90
2024-02-08T12:07:40.584Z,47.90
2024-02-08T12:10:07.130Z,47.90
2024-02-08T12:12:33.616Z,47.80
2024-02-08T12:15:00.125Z,47.80
2024-02-08T12:17:26.638Z,47.90
2024-02-08T12:19:53.157Z,47.80
2024-02-08T12:22:19.668Z,47.90
2024-02-08T12:24:46.178Z,48.10
2024-02-08T12:27:15.685Z,48.10
2024-02-08T12:29:43.320Z,48.30
2024-02-08T12:32:09.839Z,48.30
2024-02-08T12:34:36.433Z,48.20
2024-02-08T12:37:02.964Z,48.20
2024-02-08T12:39:29.491Z,48.10
2024-02-08T12:41:55.971Z,48.20
2024-02-08T12:44:22.471Z,48.10
2024-02-08T12:46:48.952Z,48.40
2024-02-08T12:49:15.612Z,48.30
2024-02-08T12:51:42.118Z,48.40
2024-02-08T12:54:08.605Z,48.20
2024-02-08T12:56:35.100Z,48.20
2024-02-08T12:59:01.556Z,48.20
2024-02-08T13:01:28.393Z,48.30
2024-02-08T13:03:54.979Z,48.40
2024-02-08T13:06:21.502Z,48.20
2024-02-08T13:08:48.012Z,48.20
2024-02-08T13:11:14.498Z,48.20
2024-02-08T13:13:41.068Z,48.20
2024-02-08T13:16:07.762Z,48.00
2024-02-08T13:18:34.288Z,48.00
2024-02-08T13:21:00.743Z,47.70
2024-02-08T13:23:27.228Z,47.60
2024-02-08T13:25:55.725Z,47.60
2024-02-08T13:28:23.547Z,47.80
2024-02-08T13:30:50.070Z,47.90
2024-02-08T13:33:16.672Z,48.10
2024-02-08T13:35:43.358Z,47.90
2024-02-08T13:38:09.892Z,47.90
2024-02-08T13:40:36.454Z,47.80
2024-02-08T13:43:03.258Z,48.00
2024-02-08T13:45:33.865Z,47.90
2024-02-08T13:48:01.268Z,47.80
2024-02-08T13:50:27.877Z,47.80
2024-02-08T13:52:54.448Z,47.90
2024-02-08T13:55:20.991Z,47.70
2024-02-08T13:57:47.590Z,47.80
2024-02-08T14:00:14.078Z,47.60
2024-02-08T14:02:40.609Z,47.70
2024-02-08T14:05:07.236Z,47.60
2024-02-08T14:07:34.055Z,47.60
2024-02-08T14:10:00.719Z,47.80
2024-02-08T14:12:27.290Z,48.00
2024-02-08T14:14:53.772Z,47.90
2024-02-08T14:17:20.221Z,48.00
2024-02-08T14:19:46.814Z,47.90
2024-02-08T14:22:13.375Z,47.90
2024-02-08T14:24:39.949Z,47.70
2024-02-08T14:27:06.489Z,47.70
2024-02-08T14:29:35.919Z,47.70
2024-02-08T14:32:02.404Z,47.60
2024-02-08T14:34:28.961Z,47.50
2024-02-08T14:36:55.525Z,47.60
2024-02-08T14:39:22.092Z,47.50
2024-02-08T14:41:48.620Z,47.40
2024-02-08T14:44:15.075Z,47.50
2024-02-08T14:46:42.526Z,47.50
2024-02-08T14:49:09.879Z,47.40
2024-02-08T14:51:36.383Z,47.40
2024-02-08T14:54:02.855Z,47.30
2024-02-08T14:56:29.295Z,47.50
2024-02-08T14:58:55.808Z,47.50
2024-02-08T15:01:22.449Z,47.50
2024-02-08T15:03:49.167Z,47.50
2024-02-08T15:06:15.922Z,47.50
2024-02-08T15:08:42.460Z,47.50
2024-02-08T15:11:08.959Z,47.50
2024-02-08T15:13:35.576Z,47.40
2024-02-08T15:16:02.160Z,47.40
2024-02-08T15:18:28.677Z,47.50
2024-02-08T15:20:55.170Z,47.40
2024-02-08T15:23:21.607Z,47.50
2024-02-08T15:25:49.805Z,47.60
2024-02-08T15:28:17.642Z,47.60
2024-02-08T15:30:44.124Z,47.60
2024-02-08T15:33:10.620Z,47.50
2024-02-08T15:35:37.483Z,47.70
2024-02-08T15:38:04.192Z,47.70
2024-02-08T15:40:30.680Z,47.70
2024-02-08T15:42:57.270Z,47.70
2024-02-08T15:45:23.805Z,47.70
2024-02-08T15:47:50.292Z,47.60
2024-02-08T15:50:17.176Z,47.60
2024-02-08T15:52:43.910Z,47.60
2024-02-08T15:55:10.554Z,47.60
2024-02-08T15:57:37.038Z,47.50
2024-02-08T16:00:03.537Z,47.70
2024-02-08T16:02:30.093Z,47.70
2024-02-08T16:04:56.748Z,48.00
2024-02-08T16:07:23.374Z,48.10
2024-02-08T16:09:49.957Z,48.00
2024-02-08T16:12:16.566Z,48.10
2024-02-08T16:14:43.099Z,48.20
2024-02-08T16:17:09.651Z,48.30
2024-02-08T16:19:36.248Z,48.10
2024-02-08T16:22:02.828Z,48.20
2024-02-08T16:24:29.319Z,47.90
2024-02-08T16:26:55.785Z,47.60
2024-02-08T16:29:22.279Z,47.50
2024-02-08T16:31:48.752Z,47.50
2024-02-08T16:34:15.509Z,47.60
2024-02-08T16:36:42.241Z,47.40
2024-02-08T16:39:09.522Z,47.50
2024-02-08T16:41:36.325Z,47.50
2024-02-08T16:44:02.836Z,47.30
2024-02-08T16:46:29.350Z,47.60
2024-02-08T16:48:55.890Z,47.20
2024-02-08T16:51:22.357Z,47.30
2024-02-08T16:53:48.883Z,47.20
2024-02-08T16:56:15.425Z,47.30
2024-02-08T16:58:41.974Z,47.20
2024-02-08T17:01:08.519Z,47.00
2024-02-08T17:03:35.003Z,47.10
2024-02-08T17:06:01.590Z,47.10
2024-02-08T17:08:28.163Z,47.10
2024-02-08T17:10:54.718Z,47.10
2024-02-08T17:13:21.227Z,47.00
2024-02-08T17:15:47.757Z,47.20
2024-02-08T17:18:14.275Z,47.60
2024-02-08T17:20:40.803Z,47.70
2024-02-08T17:23:07.294Z,47.90
2024-02-08T17:25:33.913Z,47.90
2024-02-08T17:28:00.467Z,47.90
2024-02-08T17:30:27.112Z,47.70
2024-02-08T17:32:53.643Z,47.90
2024-02-08T17:35:20.260Z,47.50
2024-02-08T17:37:46.829Z,47.50
2024-02-08T17:40:13.393Z,47.60
2024-02-08T17:42:39.886Z,47.60
2024-02-08T17:45:06.421Z,47.90
2024-02-08T17:47:32.989Z,48.20
2024-02-08T17:49:59.590Z,48.00
2024-02-08T17:52:26.155Z,48.20
2024-02-08T17:54:52.788Z,48.30
2024-02-08T17:57:19.284Z,48.20
2024-02-08T17:59:45.862Z,48.30
2024-02-08T18:02:12.599Z,48.20
2024-02-08T18:04:39.338Z,48.10
2024-02-08T18:07:10.499Z,48.20
2024-02-08T18:09:39.214Z,48.10
2024-02-08T18:12:05.689Z,47.80
2024-02-08T18:14:32.175Z,47.80
2024-02-08T18:16:58.670Z,47.90
2024-02-08T18:19:25.269Z,47.80
2024-02-08T18:21:51.789Z,47.60
2024-02-08T18:24:18.339Z,47.80
2024-02-08T18:26:44.844Z,47.60
2024-02-08T18:29:11.329Z,47.50
2024-02-08T18:31:37.858Z,47.70
2024-02-08T18:34:04.534Z,47.60
2024-02-08T18:36:31.123Z,47.60
2024-02-08T18:38:57.593Z,47.80
2024-02-08T18:41:24.692Z,47.80
2024-02-08T18:43:51.239Z,47.70
2024-02-08T18:46:18.198Z,47.60
2024-02-08T18:48:46.644Z,47.70
2024-02-08T18:51:13.780Z,47.80
2024-02-08T18:53:40.537Z,48.00
2024-02-08T18:56:07.013Z,48.00
2024-02-08T18:58:33.563Z,48.40
2024-02-08T19:01:00.116Z,48.30
2024-02-08T19:03:26.733Z,48.40
2024-02-08T19:05:53.247Z,48.40
2024-02-08T19:08:19.975Z,48.40
2024-02-08T19:10:46.768Z,48.40
2024-02-08T19:13:13.298Z,48.50
2024-02-08T19:15:39.776Z,48.50
2024-02-08T19:18:06.846Z,48.60
2024-02-08T19:20:34.019Z,48.50
2024-02-08T19:23:00.707Z,48.40
2024-02-08T19:25:27.224Z,48.20
2024-02-08T19:27:53.753Z,48.30
2024-02-08T19:30:20.301Z,48.40
2024-02-08T19:32:46.741Z,48.50
2024-02-08T19:35:13.274Z,48.60
2024-02-08T19:37:39.915Z,48.50
2024-02-08T19:40:06.511Z,48.70
2024-02-08T19:42:32.994Z,48.80
2024-02-08T19:44:59.483Z,48.90
2024-02-08T19:47:25.921Z,48.80
2024-02-08T19:49:52.498Z,48.90
2024-02-08T19:52:19.094Z,48.90
2024-02-08T19:54:45.588Z,48.90
2024-02-08T19:57:12.034Z,49.00
2024-02-08T19:59:38.531Z,48.80
2024-02-08T20:02:05.013Z,48.50
2024-02-08T20:04:31.660Z,48.40
2024-02-08T20:06:58.189Z,48.70
2024-02-08T20:09:24.690Z,48.90
2024-02-08T20:11:51.335Z,49.00
2024-02-08T20:14:17.952Z,49.00
2024-02-08T20:16:44.494Z,49.00
2024-02-08T20:19:11.163Z,48.90
2024-02-08T20:21:37.693Z,49.00
2024-02-08T20:24:04.189Z,49.10
2024-02-08T20:26:30.691Z,49.10
2024-02-08T20:28:57.250Z,49.10
2024-02-08T20:31:23.737Z,49.10
2024-02-08T20:33:50.243Z,49.10
2024-02-08T20:36:16.715Z,48.90
2024-02-08T20:38:43.160Z,49.00
2024-02-08T20:41:09.663Z,49.30
2024-02-08T20:43:36.215Z,49.30
2024-02-08T20:46:02.730Z,49.30
2024-02-08T20:48:29.357Z,49.40
2024-02-08T20:50:55.870Z,49.40
2024-02-08T20:53:22.325Z,49.20
2024-02-08T20:55:49.269Z,49.30
2024-02-08T20:58:16.142Z,49.40
2024-02-08T21:00:42.737Z,49.50
2024-02-08T21:03:09.575Z,49.50
2024-02-08T21:05:36.067Z,49.50
2024-02-08T21:08:02.550Z,49.30
2024-02-08T21:10:29.204Z,49.40
2024-02-08T21:12:55.909Z,49.40
2024-02-08T21:15:22.377Z,49.50
2024-02-08T21:17:48.868Z,49.50
2024-02-08T21:20:15.442Z,49.30
2024-02-08T21:22:42.004Z,49.40
2024-02-08T21:25:08.518Z,49.50
2024-02-08T21:27:35.011Z,49.40
2024-02-08T21:30:01.490Z,49.50
2024-02-08T21:32:27.948Z,49.50
2024-02-08T21:34:54.474Z,49.50
2024-02-08T21:37:21.045Z,49.40
2024-02-08T21:39:47.655Z,49.50
2024-02-08T21:42:14.139Z,49.50
2024-02-08T21:44:40.639Z,49.50
2024-02-08T21:47:07.100Z,49.50
2024-02-08T21:49:33.658Z,49.40
2024-02-08T21:52:00.208Z,49.30
2024-02-08T21:54:26.720Z,49.20
2024-02-08T21:56:53.163Z,49.30
2024-02-08T21:59:19.658Z,49.30
2024-02-08T22:01:46.125Z,49.40
2024-02-08T22:04:12.675Z,49.30
2024-02-08T22:06:39.387Z,49.30
2024-02-08T22:09:05.931Z,49.30
2024-02-08T22:11:32.438Z,49.30
2024-02-08T22:13:58.855Z,49.30
2024-02-08T22:16:25.402Z,49.40
2024-02-08T22:18:51.944Z,49.30
2024-02-08T22:21:18.391Z,49.30
2024-02-08T22:23:44.851Z,49.40
2024-02-08T22:26:11.277Z,49.30
2024-02-08T22:28:37.794Z,49.30
2024-02-08T22:31:04.350Z,49.30
2024-02-08T22:33:30.810Z,49.30
2024-02-08T22:35:57.231Z,49.20
2024-02-08T22:38:23.683Z,49.20
2024-02-08T22:40:50.153Z,49.20
2024-02-08T22:43:16.638Z,49.20
2024-02-08T22:45:43.097Z,49.20
2024-02-08T22:48:09.533Z,49.20
2024-02-08T22:50:36.024Z,49.20
2024-02-08T22:53:02.493Z,49.20
2024-02-08T22:55:29.035Z,49.20
2024-02-08T22:57:55.522Z,49.20
2024-02-08T23:00:21.953Z,49.30
2024-02-08T23:02:48.408Z,49.20
2024-02-08T23:05:14.971Z,49.20
2024-02-08T23:07:41.513Z,49.10
2024-02-08T23:10:08.051Z,49.20
2024-02-08T23:12:34.499Z,49.20
2024-02-08T23:15:00.942Z,49.20
2024-02-08T23:17:27.444Z,49.20
2024-02-08T23:19:54.004Z,49.20
2024-02-08T23:22:20.551Z,49.20
2024-02-08T23:24:47.012Z,49.20
2024-02-08T23:27:13.464Z,49.20
2024-02-08T23:29:39.885Z,49.20
2024-02-08T23:32:06.342Z,49.20
2024-02-08T23:34:32.871Z,49.20
2024-02-08T23:36:59.353Z,49.10
2024-02-08T23:39:25.817Z,49.20
2024-02-08T23:41:52.255Z,49.20
2024-02-08T23:44:18.693Z,49.20
2024-02-08T23:46:45.190Z,49.30
2024-02-08T23:49:11.709Z,49.20
2024-02-08T23:51:38.184Z,49.20
2024-02-08T23:54:04.646Z,49.20
2024-02-08T23:56:31.057Z,49.20
2024-02-08T23:58:57.509Z,49.20
